Time;durP1;ratioP1;P1;durP2;ratioP2;P2;SDS_P1;SDS_P2;PMS_P1;PMS_P2;Temp;Humidity;BMP_temperature;BMP_pressure;BME280_temperature;BME280_humidity;BME280_pressure;Samples;Min_cycle;Max_cycle;Signal;HPM_P1;HPM_P2
2023/08/14 00:00:27;;;;;;;;;;;;;;;-144.99;nan;52362.50;5030087;28;19978;-67
2023/08/14 00:02:54;;;;;;;;;;;;;;;-144.99;nan;52325.81;5025177;28;19963;-71
2023/08/14 00:05:20;;;;;;;;;;;;;;;-144.99;nan;52346.19;5028496;28;20044;-71
2023/08/14 00:07:47;;;;;;;;;;;;;;;-144.99;nan;52382.88;5037203;28;19945;-71
2023/08/14 00:10:13;;;;;;;;;;;;;;;-144.99;nan;52378.78;5027712;28;20053;-71
2023/08/14 00:12:41;;;;;;;;;;;;;;;-144.99;nan;52362.50;5027105;28;19962;-72
2023/08/14 00:15:08;;;;;;;;;;;;;;;-144.99;nan;52346.19;5029959;28;20416;-71
2023/08/14 00:17:35;;;;;;;;;;;;;;;-144.99;nan;52364.53;5041010;28;19940;-71
2023/08/14 00:20:02;;;;;;;;;;;;;;;-144.99;nan;52386.94;5054258;28;20370;-72
2023/08/14 00:22:29;;;;;;;;;;;;;;;-144.99;nan;52384.91;5033430;28;19993;-71
2023/08/14 00:24:55;;;;;;;;;;;;;;;-144.99;nan;52370.63;5038628;28;20595;-70
2023/08/14 00:27:22;;;;;;;;;;;;;;;-144.99;nan;52356.38;5046041;28;20428;-69
2023/08/14 00:29:50;;;;;;;;;;;;;;;-144.99;nan;52384.91;5043046;28;20413;-69
2023/08/14 00:32:16;;;;;;;;;;;;;;;-144.99;nan;52350.25;5043896;28;19995;-69
2023/08/14 00:34:43;;;;;;;;;;;;;;;-144.99;nan;52382.88;5048316;28;20261;-69
2023/08/14 00:37:09;;;;;;;;;;;;;;;-144.99;nan;52329.88;5035486;28;19971;-69
2023/08/14 00:39:36;;;;;;;;;;;;;;;-144.99;nan;52356.38;5039733;28;20068;-67
2023/08/14 00:42:02;;;;;;;;;;;;;;;-144.99;nan;52354.34;5039301;28;20066;-68
2023/08/14 00:44:30;;;;;;;;;;;;;;;-144.99;nan;52333.94;5036938;28;20006;-72
2023/08/14 00:46:58;;;;;;;;;;;;;;;-144.99;nan;52366.56;5040769;28;20032;-72
2023/08/14 00:49:25;;;;;;;;;;;;;;;-144.99;nan;52372.69;5037162;28;20045;-72
2023/08/14 00:51:51;;;;;;;;;;;;;;;-144.99;nan;52378.78;5044187;28;20013;-66
2023/08/14 00:54:18;;;;;;;;;;;;;;;-144.99;nan;52366.56;5037174;28;19999;-71
2023/08/14 00:56:44;;;;;;;;;;;;;;;-144.99;nan;52342.09;5034541;28;19942;-74
2023/08/14 00:59:11;;;;;;;;;;;;;;;-144.99;nan;52391.03;5056287;28;19947;-75
2023/08/14 01:01:38;;;;;;;;;;;;;;;-144.99;nan;52360.44;5046074;28;20429;-74
2023/08/14 01:04:06;;;;;;;;;;;;;;;-144.99;nan;52399.19;5032589;28;20525;-76
2023/08/14 01:06:32;;;;;;;;;;;;;;;-144.99;nan;52344.16;5033389;28;20033;-75
2023/08/14 01:08:59;;;;;;;;;;;;;;;-144.99;nan;52366.56;5036297;28;19982;-75
2023/08/14 01:11:29;;;;;;;;;;;;;;;-144.99;nan;52350.25;5029917;28;20046;-75
2023/08/14 01:13:57;;;;;;;;;;;;;;;-144.99;nan;52386.94;5032305;28;20006;-75
2023/08/14 01:16:25;;;;;;;;;;;;;;;-144.99;nan;52378.78;5034888;28;20050;-74
2023/08/14 01:18:52;;;;;;;;;;;;;;;-144.99;nan;52378.78;5036107;28;20024;-74
2023/08/14 01:21:40;;;;;;;;;;;;;;;-144.99;nan;52362.50;5033045;28;19990;-74
2023/08/14 01:24:14;;;;;;;;;;;;;;;-144.99;nan;52378.78;5025784;28;19950;-74
2023/08/14 01:26:42;;;;;;;;;;;;;;;-144.99;nan;52370.63;5035213;28;20035;-73
2023/08/14 01:29:09;;;;;;;;;;;;;;;-144.99;nan;52368.59;5029953;28;20034;-69
2023/08/14 01:31:35;;;;;;;;;;;;;;;-144.99;nan;52358.41;5026883;28;20640;-69
2023/08/14 01:34:02;;;;;;;;;;;;;;;-144.99;nan;52325.81;5030088;28;19965;-69
2023/08/14 01:36:32;;;;;;;;;;;;;;;-144.99;nan;52342.09;5030336;28;19956;-69
2023/08/14 01:39:02;;;;;;;;;;;;;;;-144.99;nan;52374.72;5052510;28;19945;-69
2023/08/14 01:41:32;;;;;;;;;;;;;;;-144.99;nan;52368.59;5047182;28;20374;-68
2023/08/14 01:44:00;;;;;;;;;;;;;;;-144.99;nan;52362.50;5034440;28;20002;-62
2023/08/14 01:46:27;;;;;;;;;;;;;;;-144.99;nan;52423.63;5030986;28;20069;-62
2023/08/14 01:48:55;;;;;;;;;;;;;;;-144.99;nan;52378.78;5030669;28;19953;-63
2023/08/14 01:51:23;;;;;;;;;;;;;;;-144.99;nan;52366.56;5035399;28;19964;-63
2023/08/14 01:53:50;;;;;;;;;;;;;;;-144.99;nan;52395.09;5018830;28;19965;-65
2023/08/14 01:56:16;;;;;;;;;;;;;;;-144.99;nan;52346.19;5033368;28;20773;-65
2023/08/14 01:58:43;;;;;;;;;;;;;;;-144.99;nan;52370.63;5033829;28;19985;-65
2023/08/14 02:01:11;;;;;;;;;;;;;;;-144.99;nan;52407.31;4689310;28;10000396;-65
2023/08/14 02:03:37;;;;;;;;;;;;;;;-144.99;nan;52386.94;5039741;28;19946;-65
2023/08/14 02:06:03;;;;;;;;;;;;;;;-144.99;nan;52350.25;5041785;28;19941;-64
2023/08/14 02:08:30;;;;;;;;;;;;;;;-144.99;nan;52403.25;5037871;28;20485;-68
2023/08/14 02:10:56;;;;;;;;;;;;;;;-144.99;nan;52382.88;5034826;28;20041;-66
2023/08/14 02:13:23;;;;;;;;;;;;;;;-144.99;nan;52391.03;5034501;28;20008;-67
2023/08/14 02:15:49;;;;;;;;;;;;;;;-144.99;nan;52354.34;5036898;28;20307;-66
2023/08/14 02:18:17;;;;;;;;;;;;;;;-144.99;nan;52358.41;5036504;28;19957;-65
2023/08/14 02:20:47;;;;;;;;;;;;;;;-144.99;nan;52338.03;5044826;28;19945;-66
2023/08/14 02:23:13;;;;;;;;;;;;;;;-144.99;nan;52391.03;5041224;28;20209;-66
2023/08/14 02:25:40;;;;;;;;;;;;;;;-144.99;nan;52378.78;5038162;28;20452;-66
2023/08/14 02:28:07;;;;;;;;;;;;;;;-144.99;nan;52364.53;5044586;28;19949;-62
2023/08/14 02:30:35;;;;;;;;;;;;;;;-144.99;nan;52325.81;5041968;28;19950;-62
2023/08/14 02:33:02;;;;;;;;;;;;;;;-144.99;nan;52346.19;5047198;28;20053;-72
2023/08/14 02:35:29;;;;;;;;;;;;;;;-144.99;nan;52358.41;5038354;28;20070;-71
2023/08/14 02:37:56;;;;;;;;;;;;;;;-144.99;nan;52329.88;5035938;28;19961;-72
2023/08/14 02:40:22;;;;;;;;;;;;;;;-144.99;nan;52391.03;5046378;28;19982;-71
2023/08/14 02:42:49;;;;;;;;;;;;;;;-144.99;nan;52427.72;5048604;28;20067;-61
2023/08/14 02:45:15;;;;;;;;;;;;;;;-144.99;nan;52395.09;5046059;28;19957;-62
2023/08/14 02:47:42;;;;;;;;;;;;;;;-144.99;nan;52346.19;5036166;28;20026;-62
2023/08/14 02:50:08;;;;;;;;;;;;;;;-144.99;nan;52401.22;5047277;28;20417;-61
2023/08/14 02:52:36;;;;;;;;;;;;;;;-144.99;nan;52368.59;5034806;28;19989;-62
2023/08/14 02:55:03;;;;;;;;;;;;;;;-144.99;nan;52380.84;5041618;28;19970;-62
2023/08/14 02:57:29;;;;;;;;;;;;;;;-144.99;nan;52386.94;5039298;28;19953;-64
2023/08/14 02:59:56;;;;;;;;;;;;;;;-144.99;nan;52419.56;5040842;28;19951;-64
2023/08/14 03:02:22;;;;;;;;;;;;;;;-144.99;nan;52401.22;5034274;28;20453;-64
2023/08/14 03:04:50;;;;;;;;;;;;;;;-144.99;nan;52391.03;5039284;28;20032;-63
2023/08/14 03:07:17;;;;;;;;;;;;;;;-144.99;nan;52386.94;5033505;28;20000;-63
2023/08/14 03:09:44;;;;;;;;;;;;;;;-144.99;nan;52403.25;5032153;28;19941;-63
2023/08/14 03:12:10;;;;;;;;;;;;;;;-144.99;nan;52370.63;5028731;28;19969;-63
2023/08/14 03:14:36;;;;;;;;;;;;;;;-144.99;nan;52372.69;5029778;28;20438;-63
2023/08/14 03:17:03;;;;;;;;;;;;;;;-144.99;nan;52384.91;5032026;28;20587;-63
2023/08/14 03:19:29;;;;;;;;;;;;;;;-144.99;nan;52382.88;5032176;28;20031;-63
2023/08/14 03:21:56;;;;;;;;;;;;;;;-144.99;nan;52382.88;5031356;28;20068;-63
2023/08/14 03:24:22;;;;;;;;;;;;;;;-144.99;nan;52354.34;5028999;28;20039;-63
2023/08/14 03:26:50;;;;;;;;;;;;;;;-144.99;nan;52370.63;5028090;28;20008;-62
2023/08/14 03:29:17;;;;;;;;;;;;;;;-144.99;nan;52366.56;5029242;28;20053;-62
2023/08/14 03:31:43;;;;;;;;;;;;;;;-144.99;nan;52374.72;5036503;28;20265;-71
2023/08/14 03:34:10;;;;;;;;;;;;;;;-144.99;nan;52403.25;5028514;28;20061;-63
2023/08/14 03:36:36;;;;;;;;;;;;;;;-144.99;nan;52372.69;5029295;28;19947;-65
2023/08/14 03:39:03;;;;;;;;;;;;;;;-144.99;nan;52374.72;5032029;28;20035;-66
2023/08/14 03:41:29;;;;;;;;;;;;;;;-144.99;nan;52378.78;5032781;28;19999;-66
2023/08/14 03:43:57;;;;;;;;;;;;;;;-144.99;nan;52374.72;5029574;28;19952;-66
2023/08/14 03:46:24;;;;;;;;;;;;;;;-144.99;nan;52399.19;5034608;28;19944;-64
2023/08/14 03:48:50;;;;;;;;;;;;;;;-144.99;nan;52378.78;5034233;28;20349;-64
2023/08/14 03:51:16;;;;;;;;;;;;;;;-144.99;nan;52415.47;5032273;28;19950;-66
2023/08/14 03:53:43;;;;;;;;;;;;;;;-144.99;nan;52407.31;5032020;28;20068;-67
2023/08/14 03:56:09;;;;;;;;;;;;;;;-144.99;nan;52370.63;5031052;28;20038;-69
2023/08/14 03:58:36;;;;;;;;;;;;;;;-144.99;nan;52342.09;5032840;28;19947;-68
2023/08/14 04:01:04;;;;;;;;;;;;;;;-144.99;nan;52388.97;5034211;28;20026;-67
2023/08/14 04:03:30;;;;;;;;;;;;;;;-144.99;nan;52374.72;5041533;28;20021;-65
2023/08/14 04:05:57;;;;;;;;;;;;;;;-144.99;nan;52378.78;5051763;28;20430;-67
2023/08/14 04:08:24;;;;;;;;;;;;;;;-144.99;nan;52382.88;5036788;28;20424;-67
2023/08/14 04:10:53;;;;;;;;;;;;;;;-144.99;nan;52374.72;5033677;28;20036;-68
2023/08/14 04:13:20;;;;;;;;;;;;;;;-144.99;nan;52395.09;5030411;28;19994;-68
2023/08/14 04:15:46;;;;;;;;;;;;;;;-144.99;nan;52342.09;5037055;28;20049;-69
2023/08/14 04:18:14;;;;;;;;;;;;;;;-144.99;nan;52338.03;5037405;28;19947;-70
2023/08/14 04:20:41;;;;;;;;;;;;;;;-144.99;nan;52378.78;5051268;28;20536;-69
2023/08/14 04:23:08;;;;;;;;;;;;;;;-144.99;nan;52391.03;5037496;28;20325;-61
2023/08/14 04:25:34;;;;;;;;;;;;;;;-144.99;nan;52362.50;5032521;28;20034;-70
2023/08/14 04:28:00;;;;;;;;;;;;;;;-144.99;nan;52370.63;5036007;28;19949;-70
2023/08/14 04:30:27;;;;;;;;;;;;;;;-144.99;nan;52395.09;5034160;28;19967;-71
2023/08/14 04:32:53;;;;;;;;;;;;;;;-144.99;nan;52382.88;5033085;28;20371;-72
2023/08/14 04:35:21;;;;;;;;;;;;;;;-144.99;nan;52388.97;5033089;28;19997;-71
2023/08/14 04:37:49;;;;;;;;;;;;;;;-144.99;nan;52354.34;5032564;28;19948;-72
2023/08/14 04:40:15;;;;;;;;;;;;;;;-144.99;nan;52407.31;5033159;28;20418;-71
2023/08/14 04:42:42;;;;;;;;;;;;;;;-144.99;nan;52391.03;5031482;28;19957;-71
2023/08/14 04:45:08;;;;;;;;;;;;;;;-144.99;nan;52395.09;5031202;28;19977;-71
2023/08/14 04:47:35;;;;;;;;;;;;;;;-144.99;nan;52358.41;5034855;28;19978;-70
2023/08/14 04:50:01;;;;;;;;;;;;;;;-144.99;nan;52395.09;5034991;28;19944;-71
2023/08/14 04:52:29;;;;;;;;;;;;;;;-144.99;nan;52378.78;5042739;28;20404;-70
2023/08/14 04:54:56;;;;;;;;;;;;;;;-144.99;nan;52395.09;5037667;28;20393;-71
2023/08/14 04:57:22;;;;;;;;;;;;;;;-144.99;nan;52350.25;5035937;28;20192;-69
2023/08/14 04:59:48;;;;;;;;;;;;;;;-144.99;nan;52354.34;5038043;28;19986;-63
2023/08/14 05:02:15;;;;;;;;;;;;;;;-144.99;nan;52360.44;5032189;28;20119;-63
2023/08/14 05:04:46;;;;;;;;;;;;;;;-144.99;nan;52388.97;5031768;28;20067;-64
2023/08/14 05:07:12;;;;;;;;;;;;;;;-144.99;nan;52374.72;5032300;28;20029;-62
2023/08/14 05:09:40;;;;;;;;;;;;;;;-144.99;nan;52366.56;5031845;28;20052;-63
2023/08/14 05:12:07;;;;;;;;;;;;;;;-144.99;nan;52354.34;4339795;28;10020617;-69
2023/08/14 05:14:34;;;;;;;;;;;;;;;-144.99;nan;52333.94;5026789;28;20403;-66
2023/08/14 05:17:01;;;;;;;;;;;;;;;-144.99;nan;52346.19;5043083;28;19952;-66
2023/08/14 05:19:27;;;;;;;;;;;;;;;-144.99;nan;52384.91;5033795;28;20037;-66
2023/08/14 05:21:53;;;;;;;;;;;;;;;-144.99;nan;52374.72;5042189;28;20507;-66
2023/08/14 05:24:20;;;;;;;;;;;;;;;-144.99;nan;52378.78;5040727;28;20113;-66
2023/08/14 05:26:48;;;;;;;;;;;;;;;-144.99;nan;52354.34;5041420;28;20389;-66
2023/08/14 05:29:14;;;;;;;;;;;;;;;-144.99;nan;52370.63;5040075;28;20417;-66
2023/08/14 05:31:41;;;;;;;;;;;;;;;-144.99;nan;52346.19;5042267;28;19995;-66
2023/08/14 05:34:07;;;;;;;;;;;;;;;-144.99;nan;52374.72;5035976;28;20075;-67
2023/08/14 05:36:33;;;;;;;;;;;;;;;-144.99;nan;52366.56;5046713;28;19941;-66
2023/08/14 05:39:00;;;;;;;;;;;;;;;-144.99;nan;52325.81;5039838;28;19984;-66
2023/08/14 05:41:26;;;;;;;;;;;;;;;-144.99;nan;52370.63;5039311;28;19983;-66
2023/08/14 05:43:54;;;;;;;;;;;;;;;-144.99;nan;52321.72;5032058;28;20047;-66
2023/08/14 05:46:23;;;;;;;;;;;;;;;-144.99;nan;52313.56;5043852;28;20002;-66
2023/08/14 05:48:50;;;;;;;;;;;;;;;-144.99;nan;52358.41;5038366;28;20421;-67
2023/08/14 05:51:16;;;;;;;;;;;;;;;-144.99;nan;52327.84;5041421;28;20358;-66
2023/08/14 05:53:43;;;;;;;;;;;;;;;-144.99;nan;52342.09;5038111;28;20066;-66
2023/08/14 05:56:09;;;;;;;;;;;;;;;-144.99;nan;52305.41;5037207;28;19986;-66
2023/08/14 05:58:36;;;;;;;;;;;;;;;-144.99;nan;52309.50;5031380;28;20311;-66
2023/08/14 06:01:04;;;;;;;;;;;;;;;-144.99;nan;52280.97;5039950;28;20450;-66
2023/08/14 06:03:30;;;;;;;;;;;;;;;-144.99;nan;52313.56;5042804;28;19961;-62
2023/08/14 06:05:57;;;;;;;;;;;;;;;-144.99;nan;52354.34;5038378;28;19979;-66
2023/08/14 06:08:23;;;;;;;;;;;;;;;-144.99;nan;52333.94;5031743;28;19942;-67
2023/08/14 06:10:49;;;;;;;;;;;;;;;-144.99;nan;52285.03;5031195;28;19951;-68
2023/08/14 06:13:16;;;;;;;;;;;;;;;-144.99;nan;52317.66;5038309;28;19971;-67
2023/08/14 06:15:42;;;;;;;;;;;;;;;-144.99;nan;52309.50;5036651;28;20002;-67
2023/08/14 06:18:10;;;;;;;;;;;;;;;-144.99;nan;52293.19;5051800;28;19947;-67
2023/08/14 06:20:37;;;;;;;;;;;;;;;-144.99;nan;52329.88;5034221;28;20001;-67
2023/08/14 06:23:03;;;;;;;;;;;;;;;-144.99;nan;52333.94;5029618;28;20448;-67
2023/08/14 06:25:31;;;;;;;;;;;;;;;-144.99;nan;52305.41;5029679;28;19969;-67
2023/08/14 06:27:57;;;;;;;;;;;;;;;-144.99;nan;52321.72;5038596;28;19983;-67
2023/08/14 06:30:25;;;;;;;;;;;;;;;-144.99;nan;52329.88;5034498;28;19947;-68
2023/08/14 06:32:51;;;;;;;;;;;;;;;-144.99;nan;52317.66;5037029;28;20003;-67
2023/08/14 06:35:19;;;;;;;;;;;;;;;-144.99;nan;52317.66;5036189;28;19971;-68
2023/08/14 06:37:46;;;;;;;;;;;;;;;-144.99;nan;52280.97;5040225;28;20312;-68
2023/08/14 06:40:12;;;;;;;;;;;;;;;-144.99;nan;52301.34;5034907;28;19947;-67
2023/08/14 06:42:39;;;;;;;;;;;;;;;-144.99;nan;52313.56;5039855;28;19966;-67
2023/08/14 06:45:05;;;;;;;;;;;;;;;-144.99;nan;52327.84;5040037;28;20066;-67
2023/08/14 06:47:43;;;;;;;;;;;;;;;-144.99;nan;52307.47;4967356;28;10000001;-67
2023/08/14 06:50:10;;;;;;;;;;;;;;;-144.99;nan;52295.22;5028206;28;20009;-68
2023/08/14 06:52:37;;;;;;;;;;;;;;;-144.99;nan;52289.13;5034915;28;19962;-67
2023/08/14 06:55:04;;;;;;;;;;;;;;;-144.99;nan;52295.22;5048222;28;20017;-68
2023/08/14 06:57:31;;;;;;;;;;;;;;;-144.99;nan;52289.13;5041679;28;19949;-67
2023/08/14 06:59:57;;;;;;;;;;;;;;;-144.99;nan;52276.88;5032412;28;20403;-68
2023/08/14 07:02:24;;;;;;;;;;;;;;;-144.99;nan;52289.13;5030798;28;19961;-67
2023/08/14 07:04:50;;;;;;;;;;;;;;;-144.99;nan;52256.50;5031454;28;20056;-68
2023/08/14 07:07:16;;;;;;;;;;;;;;;-144.99;nan;52293.19;5029325;28;20554;-68
2023/08/14 07:09:44;;;;;;;;;;;;;;;-144.99;nan;52268.72;5036849;28;19947;-68
2023/08/14 07:12:11;;;;;;;;;;;;;;;-144.99;nan;52256.50;5036919;28;20002;-67
2023/08/14 07:14:37;;;;;;;;;;;;;;;-144.99;nan;52297.25;5036017;28;19977;-68
2023/08/14 07:17:04;;;;;;;;;;;;;;;-144.99;nan;52252.44;5043286;28;20407;-68
2023/08/14 07:19:31;;;;;;;;;;;;;;;-144.99;nan;52285.03;5028717;28;19949;-68
2023/08/14 07:21:58;;;;;;;;;;;;;;;-144.99;nan;52244.28;5025138;28;19968;-69
2023/08/14 07:24:25;;;;;;;;;;;;;;;-144.99;nan;52266.69;5026689;28;19973;-68
2023/08/14 07:26:53;;;;;;;;;;;;;;;-144.99;nan;52252.44;5030209;28;20126;-67
2023/08/14 07:29:19;;;;;;;;;;;;;;;-144.99;nan;52244.28;5035265;28;20203;-67
2023/08/14 07:31:45;;;;;;;;;;;;;;;-144.99;nan;52260.56;5045531;28;19971;-68
2023/08/14 07:34:12;;;;;;;;;;;;;;;-144.99;nan;52260.56;5042616;28;19988;-67
2023/08/14 07:36:38;;;;;;;;;;;;;;;-144.99;nan;52252.44;5046096;28;19959;-68
2023/08/14 07:39:05;;;;;;;;;;;;;;;-144.99;nan;52264.66;5036302;28;20375;-68
2023/08/14 07:41:32;;;;;;;;;;;;;;;-144.99;nan;52232.03;5046217;28;20030;-68
2023/08/14 07:43:59;;;;;;;;;;;;;;;-144.99;nan;52280.97;5041353;28;20272;-69
2023/08/14 07:46:26;;;;;;;;;;;;;;;-144.99;nan;52219.81;5033553;28;20123;-67
2023/08/14 07:48:52;;;;;;;;;;;;;;;-144.99;nan;52254.47;5029995;28;19949;-68
2023/08/14 07:51:19;;;;;;;;;;;;;;;-144.99;nan;52270.78;5031911;28;20438;-69
2023/08/14 07:53:46;;;;;;;;;;;;;;;-144.99;nan;52276.88;5015920;28;19977;-68
2023/08/14 07:56:12;;;;;;;;;;;;;;;-144.99;nan;52248.34;5035040;28;20079;-68
2023/08/14 07:58:39;;;;;;;;;;;;;;;-144.99;nan;52252.44;5034644;28;19948;-69
2023/08/14 08:01:08;;;;;;;;;;;;;;;-144.99;nan;52283.00;5035109;28;19954;-69
2023/08/14 08:03:34;;;;;;;;;;;;;;;-144.99;nan;52289.13;5031941;28;19993;-69
2023/08/14 08:06:01;;;;;;;;;;;;;;;-144.99;nan;52280.97;5031799;28;20044;-67
2023/08/14 08:08:27;;;;;;;;;;;;;;;-144.99;nan;52264.66;5034397;28;20322;-68
2023/08/14 08:10:54;;;;;;;;;;;;;;;-144.99;nan;52244.28;5033188;28;19996;-69
2023/08/14 08:13:20;;;;;;;;;;;;;;;-144.99;nan;52252.44;5032638;28;19963;-67
2023/08/14 08:15:46;;;;;;;;;;;;;;;-144.99;nan;52236.13;5035999;28;19960;-68
2023/08/14 08:18:14;;;;;;;;;;;;;;;-144.99;nan;52256.50;5030275;28;19946;-68
2023/08/14 08:20:41;;;;;;;;;;;;;;;-144.99;nan;52217.78;5035390;28;20348;-68
2023/08/14 08:23:07;;;;;;;;;;;;;;;-144.99;nan;52227.97;5034180;28;20092;-67
2023/08/14 08:25:33;;;;;;;;;;;;;;;-144.99;nan;52248.34;5032701;28;19946;-67
2023/08/14 08:28:00;;;;;;;;;;;;;;;-144.99;nan;52248.34;5030679;28;20555;-68
2023/08/14 08:30:26;;;;;;;;;;;;;;;-144.99;nan;52227.97;5028893;28;19945;-68
2023/08/14 08:32:53;;;;;;;;;;;;;;;-144.99;nan;52236.13;5033436;28;20502;-68
2023/08/14 08:35:21;;;;;;;;;;;;;;;-144.99;nan;52207.59;5030625;28;19967;-68
2023/08/14 08:37:47;;;;;;;;;;;;;;;-144.99;nan;52219.81;5034832;28;20053;-68
2023/08/14 08:40:14;;;;;;;;;;;;;;;-144.99;nan;52219.81;5033485;28;20390;-68
2023/08/14 08:42:40;;;;;;;;;;;;;;;-144.99;nan;52221.84;5034290;28;20457;-69
2023/08/14 08:45:08;;;;;;;;;;;;;;;-144.99;nan;52232.03;5045469;28;19982;-69
2023/08/14 08:47:37;;;;;;;;;;;;;;;-144.99;nan;52227.97;5038625;28;19945;-68
2023/08/14 08:50:03;;;;;;;;;;;;;;;-144.99;nan;52191.28;5043213;28;19946;-69
2023/08/14 08:52:32;;;;;;;;;;;;;;;-144.99;nan;52219.81;5042025;28;19962;-69
2023/08/14 08:55:00;;;;;;;;;;;;;;;-144.99;nan;52207.59;5046096;28;20009;-69
2023/08/14 08:57:27;;;;;;;;;;;;;;;-144.99;nan;52244.28;5039427;28;20376;-68
2023/08/14 08:59:54;;;;;;;;;;;;;;;-144.99;nan;52236.13;5043476;28;21351;-69
2023/08/14 09:02:20;;;;;;;;;;;;;;;-144.99;nan;52236.13;5037584;28;19967;-69
2023/08/14 09:04:47;;;;;;;;;;;;;;;-144.99;nan;52219.81;5045712;28;20027;-69
2023/08/14 09:07:14;;;;;;;;;;;;;;;-144.99;nan;52215.75;5042289;28;19956;-69
2023/08/14 09:09:42;;;;;;;;;;;;;;;-144.99;nan;52187.19;5042182;28;19976;-67
2023/08/14 09:12:08;;;;;;;;;;;;;;;-144.99;nan;52213.69;5035152;28;20423;-68
2023/08/14 09:14:35;;;;;;;;;;;;;;;-144.99;nan;52227.97;5040668;28;19949;-68
2023/08/14 09:17:02;;;;;;;;;;;;;;;-144.99;nan;52225.94;5038905;28;19957;-68
2023/08/14 09:19:29;;;;;;;;;;;;;;;-144.99;nan;52199.44;5045748;28;19952;-69
2023/08/14 09:21:56;;;;;;;;;;;;;;;-144.99;nan;52207.59;5035570;28;19965;-69
2023/08/14 09:24:23;;;;;;;;;;;;;;;-144.99;nan;52227.97;5045381;28;20312;-68
2023/08/14 09:26:50;;;;;;;;;;;;;;;-144.99;nan;52191.28;5036838;28;20472;-68
2023/08/14 09:29:17;;;;;;;;;;;;;;;-144.99;nan;52199.44;5035015;28;19984;-69
2023/08/14 09:31:44;;;;;;;;;;;;;;;-144.99;nan;52187.19;5027456;28;19961;-68
2023/08/14 09:34:16;;;;;;;;;;;;;;;-144.99;nan;52219.81;5055416;28;19986;-68
2023/08/14 09:36:42;;;;;;;;;;;;;;;-144.99;nan;52199.44;5050182;28;20026;-68
2023/08/14 09:39:09;;;;;;;;;;;;;;;-144.99;nan;52179.06;5031883;28;20036;-69
2023/08/14 09:41:36;;;;;;;;;;;;;;;-144.99;nan;52211.66;5027213;28;20022;-69
2023/08/14 09:44:04;;;;;;;;;;;;;;;-144.99;nan;52221.84;5031984;28;20460;-69
2023/08/14 09:46:32;;;;;;;;;;;;;;;-144.99;nan;52199.44;5031714;28;20993;-68
2023/08/14 09:48:58;;;;;;;;;;;;;;;-144.99;nan;52168.84;5031179;28;19952;-68
2023/08/14 09:51:25;;;;;;;;;;;;;;;-144.99;nan;52185.16;5029402;28;20047;-71
2023/08/14 09:53:54;;;;;;;;;;;;;;;-144.99;nan;52195.34;5029976;28;19951;-68
2023/08/14 09:56:21;;;;;;;;;;;;;;;-144.99;nan;52207.59;5039514;28;20522;-69
2023/08/14 09:58:48;;;;;;;;;;;;;;;-144.99;nan;52174.97;5041677;28;19966;-69
2023/08/14 10:01:16;;;;;;;;;;;;;;;-144.99;nan;52203.50;5033786;28;20383;-68
2023/08/14 10:03:43;;;;;;;;;;;;;;;-144.99;nan;52170.91;5037358;28;20039;-70
2023/08/14 10:06:11;;;;;;;;;;;;;;;-144.99;nan;52195.34;5038764;28;20047;-69
2023/08/14 10:08:38;;;;;;;;;;;;;;;-144.99;nan;52191.28;5038463;28;19949;-67
2023/08/14 10:11:04;;;;;;;;;;;;;;;-144.99;nan;52168.84;5032935;28;20398;-70
2023/08/14 10:13:33;;;;;;;;;;;;;;;-144.99;nan;52187.19;5039662;28;20353;-69
2023/08/14 10:16:01;;;;;;;;;;;;;;;-144.99;nan;52146.44;5040397;28;19967;-68
2023/08/14 10:18:29;;;;;;;;;;;;;;;-144.99;nan;52140.31;5032263;28;19951;-69
2023/08/14 10:20:58;;;;;;;;;;;;;;;-144.99;nan;52162.75;5032363;28;20336;-68
2023/08/14 10:23:25;;;;;;;;;;;;;;;-144.99;nan;52162.75;5033326;28;20490;-70
2023/08/14 10:25:52;;;;;;;;;;;;;;;-144.99;nan;52203.50;5039921;28;19993;-69
2023/08/14 10:28:19;;;;;;;;;;;;;;;-144.99;nan;52158.66;5037110;28;20276;-69
2023/08/14 10:30:46;;;;;;;;;;;;;;;-144.99;nan;52166.81;5039154;28;20050;-69
2023/08/14 10:33:13;;;;;;;;;;;;;;;-144.99;nan;52187.19;5038872;28;20025;-69
2023/08/14 10:35:51;;;;;;;;;;;;;;;-144.99;nan;52166.81;5035367;28;20057;-68
2023/08/14 10:38:18;;;;;;;;;;;;;;;-144.99;nan;52174.97;5044710;28;19954;-68
2023/08/14 10:40:52;;;;;;;;;;;;;;;-144.99;nan;52142.38;5032081;28;20519;-68
2023/08/14 10:43:18;;;;;;;;;;;;;;;-144.99;nan;52187.19;5038671;28;19957;-69
2023/08/14 10:45:45;;;;;;;;;;;;;;;-144.99;nan;52168.84;5036394;28;20404;-70
2023/08/14 10:48:12;;;;;;;;;;;;;;;-144.99;nan;52154.59;5042628;28;19945;-70
2023/08/14 10:50:38;;;;;;;;;;;;;;;-144.99;nan;52162.75;5041038;28;19947;-68
2023/08/14 10:53:06;;;;;;;;;;;;;;;-144.99;nan;52089.38;5032437;28;20040;-68
2023/08/14 10:55:36;;;;;;;;;;;;;;;-144.99;nan;52117.91;5038970;28;20223;-69
2023/08/14 10:58:22;;;;;;;;;;;;;;;-144.99;nan;52089.38;5040798;28;19986;-69
2023/08/14 11:00:52;;;;;;;;;;;;;;;-144.99;nan;52056.78;5035267;28;21170;-68
2023/08/14 11:03:18;;;;;;;;;;;;;;;-144.99;nan;52032.31;5026325;28;19967;-70
2023/08/14 11:05:45;;;;;;;;;;;;;;;-144.99;nan;52024.16;5039864;28;19941;-70
2023/08/14 11:08:13;;;;;;;;;;;;;;;-144.99;nan;52003.78;5042128;28;19952;-70
2023/08/14 11:10:40;;;;;;;;;;;;;;;-144.99;nan;51987.47;5046025;28;19942;-70
2023/08/14 11:13:08;;;;;;;;;;;;;;;-144.99;nan;51995.63;5039831;28;19958;-70
2023/08/14 11:15:35;;;;;;;;;;;;;;;-144.99;nan;51971.16;5045693;28;20349;-70
2023/08/14 11:18:02;;;;;;;;;;;;;;;-144.99;nan;52113.84;5045757;28;20024;-70
2023/08/14 11:20:29;;;;;;;;;;;;;;;-144.99;nan;52089.38;5044190;28;19947;-70
2023/08/14 11:22:56;;;;;;;;;;;;;;;-144.99;nan;52040.47;5041264;28;19997;-70
2023/08/14 11:25:24;;;;;;;;;;;;;;;-144.99;nan;51991.56;5041665;28;19952;-71
2023/08/14 11:27:52;;;;;;;;;;;;;;;-144.99;nan;52101.59;5044577;28;19983;-68
2023/08/14 11:30:18;;;;;;;;;;;;;;;-144.99;nan;52066.97;5045547;28;19948;-68
2023/08/14 11:32:45;;;;;;;;;;;;;;;-144.99;nan;52048.63;5040257;28;20092;-68
2023/08/14 11:35:12;;;;;;;;;;;;;;;-144.99;nan;52085.31;5036735;28;19952;-69
2023/08/14 11:37:39;;;;;;;;;;;;;;;-144.99;nan;52032.31;5042599;28;19964;-72
2023/08/14 11:40:06;;;;;;;;;;;;;;;-144.99;nan;52050.66;5032948;28;19943;-70
2023/08/14 11:42:34;;;;;;;;;;;;;;;-144.99;nan;51971.16;5034819;28;19968;-71
2023/08/14 11:45:03;;;;;;;;;;;;;;;-144.99;nan;51948.75;5030761;28;19950;-72
2023/08/14 11:47:30;;;;;;;;;;;;;;;-144.99;nan;51952.81;5037449;28;20005;-72
2023/08/14 11:49:57;;;;;;;;;;;;;;;-144.99;nan;52028.22;5035496;28;20412;-71
2023/08/14 11:52:25;;;;;;;;;;;;;;;-144.99;nan;51987.47;5025422;28;19969;-71
2023/08/14 11:54:51;;;;;;;;;;;;;;;-144.99;nan;52058.81;5035740;28;19990;-71
2023/08/14 11:57:18;;;;;;;;;;;;;;;-144.99;nan;52069.00;5037931;28;19978;-73
2023/08/14 11:59:46;;;;;;;;;;;;;;;-144.99;nan;51987.47;5044230;28;19947;-73
2023/08/14 12:02:12;;;;;;;;;;;;;;;-144.99;nan;51991.56;5028941;28;19997;-72
2023/08/14 12:04:40;;;;;;;;;;;;;;;-144.99;nan;51983.41;5029981;28;20356;-73
2023/08/14 12:07:07;;;;;;;;;;;;;;;-144.99;nan;51963.03;5034008;28;19952;-72
2023/08/14 12:09:33;;;;;;;;;;;;;;;-144.99;nan;51987.47;5028408;28;20433;-74
2023/08/14 12:11:59;;;;;;;;;;;;;;;-144.99;nan;51963.03;5036287;28;20057;-73
2023/08/14 12:14:38;;;;;;;;;;;;;;;-144.99;nan;51975.25;5037375;28;20410;-73
2023/08/14 12:17:06;;;;;;;;;;;;;;;-144.99;nan;51918.19;5037828;28;20012;-72
2023/08/14 12:19:33;;;;;;;;;;;;;;;-144.99;nan;51938.56;5039560;28;19956;-72
2023/08/14 12:22:01;;;;;;;;;;;;;;;-144.99;nan;51936.53;5040721;28;20045;-73
2023/08/14 12:24:27;;;;;;;;;;;;;;;-144.99;nan;51950.78;5041192;28;20414;-72
2023/08/14 12:26:54;;;;;;;;;;;;;;;-144.99;nan;52117.91;5049344;28;20389;-73
2023/08/14 12:29:21;;;;;;;;;;;;;;;-144.99;nan;52109.75;5042691;28;20256;-74
2023/08/14 12:31:47;;;;;;;;;;;;;;;-144.99;nan;52126.06;5038283;28;19971;-70
2023/08/14 12:34:16;;;;;;;;;;;;;;;-144.99;nan;52113.84;5041859;28;19950;-70
2023/08/14 12:36:42;;;;;;;;;;;;;;;-144.99;nan;52016.00;5037905;28;20263;-71
2023/08/14 12:39:08;;;;;;;;;;;;;;;-144.99;nan;52036.38;5048510;28;20376;-71
2023/08/14 12:41:35;;;;;;;;;;;;;;;-144.99;nan;52026.19;5038794;28;20386;-72
2023/08/14 12:44:02;;;;;;;;;;;;;;;-144.99;nan;52001.75;5033295;28;20053;-73